EWG4QK EDDL-EPKK
Flight info
| Callsign | EWG4QK |
|---|---|
| Flight time | N/A |
| Altitude | 37000 |
| Route | MEVEL1Z/05R MEVEL L179 MISRI Z851 ROBEG DCT HLZ DCT GODUR DCT LASIS T714 GODLO DCT MOFKE |
| Aircraft | A320/M-SDE3FGHIRWY/LB1 |
Departure
| Time | 2026-04-30 10:33 |
|---|---|
| Airport | Düsseldorf Airport (EDDL) |
Arrival
| Time | N/A |
|---|---|
| Airport | Kraków John Paul II International Airport (EPKK) |
| Time | Latitude | Longitude | Altitude | Speed | Heading |
|---|---|---|---|---|---|
| 2026-04-30 10:15 | 51.27942 | 6.76174 | 126 ft | 0 kts | 91° |
| 2026-04-30 10:27 | 51.27942 | 6.76140 | 126 ft | 4 kts | 87° |
| 2026-04-30 10:28 | 51.27940 | 6.76097 | 129 ft | 4 kts | 76° |
| 2026-04-30 10:28 | 51.27930 | 6.76060 | 127 ft | 4 kts | 43° |
| 2026-04-30 10:28 | 51.27918 | 6.76048 | 128 ft | 0 kts | 1° |
| 2026-04-30 10:30 | 51.27935 | 6.76048 | 127 ft | 9 kts | 1° |
| 2026-04-30 10:30 | 51.27999 | 6.76049 | 128 ft | 9 kts | 358° |
| 2026-04-30 10:30 | 51.28039 | 6.76048 | 127 ft | 8 kts | 359° |
| 2026-04-30 10:31 | 51.28091 | 6.76037 | 129 ft | 7 kts | 332° |
| 2026-04-30 10:31 | 51.28087 | 6.75928 | 127 ft | 14 kts | 228° |
| 2026-04-30 10:31 | 51.28028 | 6.75808 | 128 ft | 13 kts | 233° |
| 2026-04-30 10:31 | 51.27975 | 6.75694 | 126 ft | 12 kts | 232° |
| 2026-04-30 10:32 | 51.27948 | 6.75575 | 128 ft | 11 kts | 295° |
| 2026-04-30 10:32 | 51.28012 | 6.75511 | 125 ft | 12 kts | 333° |
| 2026-04-30 10:32 | 51.28091 | 6.75502 | 127 ft | 10 kts | 15° |
| 2026-04-30 10:32 | 51.28122 | 6.75536 | 127 ft | 1 kts | 51° |
| 2026-04-30 10:33 | 51.28192 | 6.75684 | 126 ft | 49 kts | 53° |
| 2026-04-30 10:33 | 51.28543 | 6.76438 | 128 ft | 116 kts | 52° |
| 2026-04-30 10:33 | 51.29117 | 6.77682 | 311 ft | 151 kts | 58° |
| 2026-04-30 10:33 | 51.29748 | 6.79023 | 1116 ft | 152 kts | 55° |
| 2026-04-30 10:34 | 51.30416 | 6.80374 | 1742 ft | 165 kts | 58° |
| 2026-04-30 10:34 | 51.31158 | 6.81949 | 2148 ft | 190 kts | 56° |
| 2026-04-30 10:34 | 51.32002 | 6.83745 | 2638 ft | 214 kts | 58° |
| 2026-04-30 10:34 | 51.32948 | 6.85755 | 3163 ft | 237 kts | 58° |
| 2026-04-30 10:35 | 51.33955 | 6.87922 | 3993 ft | 246 kts | 59° |
| 2026-04-30 10:35 | 51.35110 | 6.89999 | 4953 ft | 258 kts | 40° |
| 2026-04-30 10:35 | 51.36834 | 6.91011 | 5943 ft | 271 kts | 16° |
| 2026-04-30 10:35 | 51.38705 | 6.91537 | 6926 ft | 275 kts | 15° |
| 2026-04-30 10:36 | 51.40319 | 6.91948 | 7703 ft | 277 kts | 14° |